Scott, Arkansas
Current Conditions -  °F | °C
As of 8:53 AM on Friday 19 Dec 2014 (Local Time) from KLIT Reporting Station
Haze Haze  
Wind Chill: 37°   Ceiling: 1200
Heat Index: 42°   Visibility: 5mi
Dew Point: 37°   Wind: 8mph
Humidity: 82%   Direction: 30°NNE
Pressure: 30.27"   Gusts: NA
Location:  34.7°N, 92.1°W
Report Text: KLIT 191453Z 03007KT 5SM BR FEW008 OVC012 06/03 A3027 RMK AO2 SLP253 CIG RGD T00560028 51016
Loading
Personal Weather Stations






























Interactive Weather Map New forecast layout! Learn more

10-Day Weather Forecast

Advertisements
Track Severe Weather on mobile